sensor_id;sensor_type;location;lat;lon;timestamp;temperature;humidity
22544;DHT22;11438;52.044;8.716;2023-07-30T00:00:36;21.40;99.90
22544;DHT22;11438;52.044;8.716;2023-07-30T00:03:02;21.40;99.90
22544;DHT22;11438;52.044;8.716;2023-07-30T00:05:27;21.40;99.90
22544;DHT22;11438;52.044;8.716;2023-07-30T00:07:53;21.40;99.90
22544;DHT22;11438;52.044;8.716;2023-07-30T00:10:20;21.40;99.90
22544;DHT22;11438;52.044;8.716;2023-07-30T00:12:46;21.40;99.90
22544;DHT22;11438;52.044;8.716;2023-07-30T00:15:11;21.40;99.90
22544;DHT22;11438;52.044;8.716;2023-07-30T00:17:38;21.40;99.90
22544;DHT22;11438;52.044;8.716;2023-07-30T00:20:05;21.30;99.90
22544;DHT22;11438;52.044;8.716;2023-07-30T00:22:31;21.30;99.90
22544;DHT22;11438;52.044;8.716;2023-07-30T00:24:56;21.40;99.90
22544;DHT22;11438;52.044;8.716;2023-07-30T00:27:22;21.30;99.90
22544;DHT22;11438;52.044;8.716;2023-07-30T00:29:47;21.30;99.90
22544;DHT22;11438;52.044;8.716;2023-07-30T00:32:12;21.40;99.90
22544;DHT22;11438;52.044;8.716;2023-07-30T00:34:41;21.40;99.90
22544;DHT22;11438;52.044;8.716;2023-07-30T00:37:06;21.40;99.90
22544;DHT22;11438;52.044;8.716;2023-07-30T00:39:32;21.40;99.90
22544;DHT22;11438;52.044;8.716;2023-07-30T00:41:57;21.40;99.90
22544;DHT22;11438;52.044;8.716;2023-07-30T00:44:23;21.40;99.90
22544;DHT22;11438;52.044;8.716;2023-07-30T00:46:49;21.40;99.90
22544;DHT22;11438;52.044;8.716;2023-07-30T00:49:15;21.50;99.90
22544;DHT22;11438;52.044;8.716;2023-07-30T00:51:41;21.50;99.90
22544;DHT22;11438;52.044;8.716;2023-07-30T00:54:07;21.40;99.90
22544;DHT22;11438;52.044;8.716;2023-07-30T00:56:33;21.50;99.90
22544;DHT22;11438;52.044;8.716;2023-07-30T00:58:59;21.40;99.90
22544;DHT22;11438;52.044;8.716;2023-07-30T01:01:24;21.40;99.90
22544;DHT22;11438;52.044;8.716;2023-07-30T01:03:50;21.40;99.90
22544;DHT22;11438;52.044;8.716;2023-07-30T01:06:16;21.40;99.90
22544;DHT22;11438;52.044;8.716;2023-07-30T01:08:41;21.40;99.90
22544;DHT22;11438;52.044;8.716;2023-07-30T01:11:08;21.40;99.90
22544;DHT22;11438;52.044;8.716;2023-07-30T01:13:35;21.30;99.90
22544;DHT22;11438;52.044;8.716;2023-07-30T01:16:00;21.30;99.90
22544;DHT22;11438;52.044;8.716;2023-07-30T01:18:26;21.30;99.90
22544;DHT22;11438;52.044;8.716;2023-07-30T01:20:59;21.30;99.90
22544;DHT22;11438;52.044;8.716;2023-07-30T01:23:25;21.30;99.90
22544;DHT22;11438;52.044;8.716;2023-07-30T01:26:01;21.20;99.90
22544;DHT22;11438;52.044;8.716;2023-07-30T01:28:29;21.20;99.90
22544;DHT22;11438;52.044;8.716;2023-07-30T01:30:58;21.20;99.90
22544;DHT22;11438;52.044;8.716;2023-07-30T01:33:25;21.20;99.90
22544;DHT22;11438;52.044;8.716;2023-07-30T01:35:53;21.10;99.90
22544;DHT22;11438;52.044;8.716;2023-07-30T01:38:19;21.10;99.90
22544;DHT22;11438;52.044;8.716;2023-07-30T01:40:45;21.10;99.90
22544;DHT22;11438;52.044;8.716;2023-07-30T01:43:11;21.10;99.90
22544;DHT22;11438;52.044;8.716;2023-07-30T01:45:36;21.00;99.90
22544;DHT22;11438;52.044;8.716;2023-07-30T01:48:02;21.00;99.90
22544;DHT22;11438;52.044;8.716;2023-07-30T01:50:27;21.00;99.90
22544;DHT22;11438;52.044;8.716;2023-07-30T01:52:53;21.00;99.90
22544;DHT22;11438;52.044;8.716;2023-07-30T01:55:18;21.00;99.90
22544;DHT22;11438;52.044;8.716;2023-07-30T01:57:44;20.90;99.90
22544;DHT22;11438;52.044;8.716;2023-07-30T02:00:10;20.90;99.90
22544;DHT22;11438;52.044;8.716;2023-07-30T02:02:35;20.90;99.90
22544;DHT22;11438;52.044;8.716;2023-07-30T02:05:01;20.90;99.90
22544;DHT22;11438;52.044;8.716;2023-07-30T02:07:27;20.90;99.90
22544;DHT22;11438;52.044;8.716;2023-07-30T02:09:53;20.90;99.90
22544;DHT22;11438;52.044;8.716;2023-07-30T02:12:18;20.80;99.90
22544;DHT22;11438;52.044;8.716;2023-07-30T02:14:44;20.80;99.90
22544;DHT22;11438;52.044;8.716;2023-07-30T02:17:09;20.80;99.90
22544;DHT22;11438;52.044;8.716;2023-07-30T02:19:35;20.70;99.90
22544;DHT22;11438;52.044;8.716;2023-07-30T02:22:00;20.70;99.90
22544;DHT22;11438;52.044;8.716;2023-07-30T02:24:26;20.70;99.90
22544;DHT22;11438;52.044;8.716;2023-07-30T02:26:51;20.70;99.90
22544;DHT22;11438;52.044;8.716;2023-07-30T02:29:17;20.60;99.90
22544;DHT22;11438;52.044;8.716;2023-07-30T02:31:42;20.60;99.90
22544;DHT22;11438;52.044;8.716;2023-07-30T02:34:08;20.60;99.90
22544;DHT22;11438;52.044;8.716;2023-07-30T02:36:34;20.50;99.90
22544;DHT22;11438;52.044;8.716;2023-07-30T02:38:59;20.60;99.90
22544;DHT22;11438;52.044;8.716;2023-07-30T02:41:25;20.50;99.90
22544;DHT22;11438;52.044;8.716;2023-07-30T02:43:50;20.50;99.90
22544;DHT22;11438;52.044;8.716;2023-07-30T02:46:16;20.50;99.90
22544;DHT22;11438;52.044;8.716;2023-07-30T02:48:41;20.50;99.90
22544;DHT22;11438;52.044;8.716;2023-07-30T02:51:07;20.50;99.90
22544;DHT22;11438;52.044;8.716;2023-07-30T02:53:32;20.40;99.90
22544;DHT22;11438;52.044;8.716;2023-07-30T02:55:58;20.40;99.90
22544;DHT22;11438;52.044;8.716;2023-07-30T02:58:23;20.40;99.90
22544;DHT22;11438;52.044;8.716;2023-07-30T03:00:49;20.40;99.90
22544;DHT22;11438;52.044;8.716;2023-07-30T03:03:16;20.30;99.90
22544;DHT22;11438;52.044;8.716;2023-07-30T03:05:42;20.30;99.90
22544;DHT22;11438;52.044;8.716;2023-07-30T03:08:08;20.30;99.90
22544;DHT22;11438;52.044;8.716;2023-07-30T03:10:33;20.30;99.90
22544;DHT22;11438;52.044;8.716;2023-07-30T03:12:59;20.30;99.90
22544;DHT22;11438;52.044;8.716;2023-07-30T03:15:24;20.30;99.90
22544;DHT22;11438;52.044;8.716;2023-07-30T03:17:50;20.30;99.90
22544;DHT22;11438;52.044;8.716;2023-07-30T03:20:15;20.30;99.90
22544;DHT22;11438;52.044;8.716;2023-07-30T03:22:41;20.30;99.90
22544;DHT22;11438;52.044;8.716;2023-07-30T03:25:07;20.30;99.90
22544;DHT22;11438;52.044;8.716;2023-07-30T03:27:32;20.30;99.90
22544;DHT22;11438;52.044;8.716;2023-07-30T03:29:58;20.20;99.90
22544;DHT22;11438;52.044;8.716;2023-07-30T03:32:23;20.20;99.90
22544;DHT22;11438;52.044;8.716;2023-07-30T03:34:49;20.20;99.90
22544;DHT22;11438;52.044;8.716;2023-07-30T03:37:14;20.20;99.90
22544;DHT22;11438;52.044;8.716;2023-07-30T03:39:40;20.20;99.90
22544;DHT22;11438;52.044;8.716;2023-07-30T03:42:05;20.20;99.90
22544;DHT22;11438;52.044;8.716;2023-07-30T03:44:31;20.10;99.90
22544;DHT22;11438;52.044;8.716;2023-07-30T03:46:56;20.10;99.90
22544;DHT22;11438;52.044;8.716;2023-07-30T03:49:22;20.10;99.90
22544;DHT22;11438;52.044;8.716;2023-07-30T03:51:47;20.20;99.90
22544;DHT22;11438;52.044;8.716;2023-07-30T03:54:13;20.10;99.90
22544;DHT22;11438;52.044;8.716;2023-07-30T03:56:38;20.00;99.90
22544;DHT22;11438;52.044;8.716;2023-07-30T03:59:04;20.10;99.90
22544;DHT22;11438;52.044;8.716;2023-07-30T04:01:29;20.10;99.90
22544;DHT22;11438;52.044;8.716;2023-07-30T04:03:56;20.00;99.90
22544;DHT22;11438;52.044;8.716;2023-07-30T04:06:21;20.00;99.90
22544;DHT22;11438;52.044;8.716;2023-07-30T04:08:47;20.00;99.90
22544;DHT22;11438;52.044;8.716;2023-07-30T04:11:12;20.00;99.90
22544;DHT22;11438;52.044;8.716;2023-07-30T04:13:38;20.00;99.90
22544;DHT22;11438;52.044;8.716;2023-07-30T04:16:03;20.00;99.90
22544;DHT22;11438;52.044;8.716;2023-07-30T04:18:29;20.00;99.90
22544;DHT22;11438;52.044;8.716;2023-07-30T04:20:55;19.90;99.90
22544;DHT22;11438;52.044;8.716;2023-07-30T04:23:23;19.90;99.90
22544;DHT22;11438;52.044;8.716;2023-07-30T04:25:50;19.90;99.90
22544;DHT22;11438;52.044;8.716;2023-07-30T04:28:16;19.90;99.90
22544;DHT22;11438;52.044;8.716;2023-07-30T04:30:41;19.90;99.90
22544;DHT22;11438;52.044;8.716;2023-07-30T04:33:07;19.90;99.90
22544;DHT22;11438;52.044;8.716;2023-07-30T04:35:32;19.90;99.90
22544;DHT22;11438;52.044;8.716;2023-07-30T04:37:58;19.90;99.90
22544;DHT22;11438;52.044;8.716;2023-07-30T04:40:23;19.80;99.90
22544;DHT22;11438;52.044;8.716;2023-07-30T04:42:49;19.80;99.90
22544;DHT22;11438;52.044;8.716;2023-07-30T04:45:14;19.80;99.90
22544;DHT22;11438;52.044;8.716;2023-07-30T04:47:40;19.90;99.90
22544;DHT22;11438;52.044;8.716;2023-07-30T04:50:06;19.80;99.90
22544;DHT22;11438;52.044;8.716;2023-07-30T04:52:31;19.80;99.90
22544;DHT22;11438;52.044;8.716;2023-07-30T04:54:57;19.80;99.90
22544;DHT22;11438;52.044;8.716;2023-07-30T04:57:22;19.80;99.90
22544;DHT22;11438;52.044;8.716;2023-07-30T04:59:48;19.80;99.90
22544;DHT22;11438;52.044;8.716;2023-07-30T05:02:14;19.80;99.90
22544;DHT22;11438;52.044;8.716;2023-07-30T05:04:39;19.80;99.90
22544;DHT22;11438;52.044;8.716;2023-07-30T05:07:05;19.80;99.90
22544;DHT22;11438;52.044;8.716;2023-07-30T05:09:30;19.90;99.90
22544;DHT22;11438;52.044;8.716;2023-07-30T05:11:56;19.90;99.90
22544;DHT22;11438;52.044;8.716;2023-07-30T05:14:21;19.90;99.90
22544;DHT22;11438;52.044;8.716;2023-07-30T05:16:47;19.90;99.90
22544;DHT22;11438;52.044;8.716;2023-07-30T05:19:12;20.00;99.90
22544;DHT22;11438;52.044;8.716;2023-07-30T05:21:38;20.00;99.90
22544;DHT22;11438;52.044;8.716;2023-07-30T05:24:04;20.00;99.90
22544;DHT22;11438;52.044;8.716;2023-07-30T05:26:29;20.10;99.90
22544;DHT22;11438;52.044;8.716;2023-07-30T05:28:55;20.10;99.90
22544;DHT22;11438;52.044;8.716;2023-07-30T05:31:20;20.10;99.90
22544;DHT22;11438;52.044;8.716;2023-07-30T05:33:46;20.10;99.90
22544;DHT22;11438;52.044;8.716;2023-07-30T05:36:11;20.20;99.90
22544;DHT22;11438;52.044;8.716;2023-07-30T05:38:37;20.20;99.90
22544;DHT22;11438;52.044;8.716;2023-07-30T05:41:02;20.20;99.90
22544;DHT22;11438;52.044;8.716;2023-07-30T05:43:28;20.20;99.90
22544;DHT22;11438;52.044;8.716;2023-07-30T05:45:53;20.30;99.90
22544;DHT22;11438;52.044;8.716;2023-07-30T05:48:19;20.20;99.90
22544;DHT22;11438;52.044;8.716;2023-07-30T05:50:44;20.30;99.90
22544;DHT22;11438;52.044;8.716;2023-07-30T05:53:10;20.30;99.90
22544;DHT22;11438;52.044;8.716;2023-07-30T05:55:35;20.30;99.90
22544;DHT22;11438;52.044;8.716;2023-07-30T05:58:01;20.30;99.90
22544;DHT22;11438;52.044;8.716;2023-07-30T06:00:26;20.30;99.90
22544;DHT22;11438;52.044;8.716;2023-07-30T06:02:52;20.30;99.90
22544;DHT22;11438;52.044;8.716;2023-07-30T06:05:17;20.30;99.90
22544;DHT22;11438;52.044;8.716;2023-07-30T06:07:43;20.30;99.90
22544;DHT22;11438;52.044;8.716;2023-07-30T06:10:09;20.30;99.90
22544;DHT22;11438;52.044;8.716;2023-07-30T06:12:34;20.30;99.90
22544;DHT22;11438;52.044;8.716;2023-07-30T06:15:00;20.40;99.90
22544;DHT22;11438;52.044;8.716;2023-07-30T06:17:25;20.40;99.90
22544;DHT22;11438;52.044;8.716;2023-07-30T06:19:51;20.50;99.90
22544;DHT22;11438;52.044;8.716;2023-07-30T06:22:16;20.50;99.90
22544;DHT22;11438;52.044;8.716;2023-07-30T06:24:42;20.50;99.90
22544;DHT22;11438;52.044;8.716;2023-07-30T06:27:07;20.60;99.90
22544;DHT22;11438;52.044;8.716;2023-07-30T06:29:35;20.60;99.90
22544;DHT22;11438;52.044;8.716;2023-07-30T06:32:01;20.60;99.90
22544;DHT22;11438;52.044;8.716;2023-07-30T06:34:26;20.70;99.90
22544;DHT22;11438;52.044;8.716;2023-07-30T06:36:52;20.80;99.90
22544;DHT22;11438;52.044;8.716;2023-07-30T06:39:17;20.80;99.90
22544;DHT22;11438;52.044;8.716;2023-07-30T06:41:43;20.80;99.60
22544;DHT22;11438;52.044;8.716;2023-07-30T06:44:08;20.80;99.40
22544;DHT22;11438;52.044;8.716;2023-07-30T06:46:34;20.90;99.30
22544;DHT22;11438;52.044;8.716;2023-07-30T06:48:59;20.90;99.30
22544;DHT22;11438;52.044;8.716;2023-07-30T06:51:25;20.90;99.20
22544;DHT22;11438;52.044;8.716;2023-07-30T06:53:50;21.00;99.20
22544;DHT22;11438;52.044;8.716;2023-07-30T06:56:16;21.00;99.30
22544;DHT22;11438;52.044;8.716;2023-07-30T06:58:42;21.00;99.30
22544;DHT22;11438;52.044;8.716;2023-07-30T07:01:08;21.10;99.30
22544;DHT22;11438;52.044;8.716;2023-07-30T07:03:33;21.10;98.90
22544;DHT22;11438;52.044;8.716;2023-07-30T07:05:59;21.10;98.80
22544;DHT22;11438;52.044;8.716;2023-07-30T07:08:24;21.20;98.90
22544;DHT22;11438;52.044;8.716;2023-07-30T07:10:50;21.20;98.80
22544;DHT22;11438;52.044;8.716;2023-07-30T07:13:16;21.30;98.80
22544;DHT22;11438;52.044;8.716;2023-07-30T07:15:42;21.30;98.90
22544;DHT22;11438;52.044;8.716;2023-07-30T07:18:08;21.40;98.70
22544;DHT22;11438;52.044;8.716;2023-07-30T07:20:34;21.40;98.70
22544;DHT22;11438;52.044;8.716;2023-07-30T07:22:59;21.50;98.50
22544;DHT22;11438;52.044;8.716;2023-07-30T07:25:25;21.50;98.40
22544;DHT22;11438;52.044;8.716;2023-07-30T07:27:50;21.60;98.40
22544;DHT22;11438;52.044;8.716;2023-07-30T07:30:16;21.60;98.10
22544;DHT22;11438;52.044;8.716;2023-07-30T07:32:41;21.70;97.90
22544;DHT22;11438;52.044;8.716;2023-07-30T07:35:08;21.70;97.90
22544;DHT22;11438;52.044;8.716;2023-07-30T07:37:33;21.70;97.90
22544;DHT22;11438;52.044;8.716;2023-07-30T07:39:59;21.80;97.90
22544;DHT22;11438;52.044;8.716;2023-07-30T07:42:25;21.80;98.00
22544;DHT22;11438;52.044;8.716;2023-07-30T07:44:50;21.90;97.90
22544;DHT22;11438;52.044;8.716;2023-07-30T07:47:16;21.90;97.80
22544;DHT22;11438;52.044;8.716;2023-07-30T07:49:41;21.90;97.80
22544;DHT22;11438;52.044;8.716;2023-07-30T07:52:07;21.90;97.70
22544;DHT22;11438;52.044;8.716;2023-07-30T07:54:34;22.00;97.80
22544;DHT22;11438;52.044;8.716;2023-07-30T07:56:59;22.00;97.60
22544;DHT22;11438;52.044;8.716;2023-07-30T07:59:25;22.10;97.60
22544;DHT22;11438;52.044;8.716;2023-07-30T08:01:53;22.10;97.30
22544;DHT22;11438;52.044;8.716;2023-07-30T08:04:18;22.10;97.20
22544;DHT22;11438;52.044;8.716;2023-07-30T08:06:46;22.10;96.80
22544;DHT22;11438;52.044;8.716;2023-07-30T08:09:12;22.10;96.90
22544;DHT22;11438;52.044;8.716;2023-07-30T08:11:37;22.10;97.00
22544;DHT22;11438;52.044;8.716;2023-07-30T08:14:03;22.10;97.00
22544;DHT22;11438;52.044;8.716;2023-07-30T08:16:28;22.10;97.10
22544;DHT22;11438;52.044;8.716;2023-07-30T08:18:54;22.00;97.20
22544;DHT22;11438;52.044;8.716;2023-07-30T08:21:20;22.00;97.30
22544;DHT22;11438;52.044;8.716;2023-07-30T08:23:46;22.10;97.00
22544;DHT22;11438;52.044;8.716;2023-07-30T08:26:11;22.10;97.00
22544;DHT22;11438;52.044;8.716;2023-07-30T08:28:37;22.10;97.00
22544;DHT22;11438;52.044;8.716;2023-07-30T08:31:02;22.10;97.00
22544;DHT22;11438;52.044;8.716;2023-07-30T08:33:28;22.10;97.20
22544;DHT22;11438;52.044;8.716;2023-07-30T08:35:55;22.10;97.20
22544;DHT22;11438;52.044;8.716;2023-07-30T08:38:21;22.10;97.10
22544;DHT22;11438;52.044;8.716;2023-07-30T08:40:47;22.10;97.20
22544;DHT22;11438;52.044;8.716;2023-07-30T08:43:13;22.20;97.20
22544;DHT22;11438;52.044;8.716;2023-07-30T08:45:38;22.20;97.30
22544;DHT22;11438;52.044;8.716;2023-07-30T08:48:04;22.20;97.20
22544;DHT22;11438;52.044;8.716;2023-07-30T08:50:30;22.20;97.30
22544;DHT22;11438;52.044;8.716;2023-07-30T08:52:56;22.30;97.10
22544;DHT22;11438;52.044;8.716;2023-07-30T08:55:23;22.30;97.30
22544;DHT22;11438;52.044;8.716;2023-07-30T08:57:50;22.40;97.00
22544;DHT22;11438;52.044;8.716;2023-07-30T09:00:19;22.40;96.80
22544;DHT22;11438;52.044;8.716;2023-07-30T09:02:48;22.50;96.70
22544;DHT22;11438;52.044;8.716;2023-07-30T09:05:15;22.50;96.70
22544;DHT22;11438;52.044;8.716;2023-07-30T09:07:40;22.50;97.10
22544;DHT22;11438;52.044;8.716;2023-07-30T09:10:07;22.50;96.70
22544;DHT22;11438;52.044;8.716;2023-07-30T09:12:34;22.50;96.50
22544;DHT22;11438;52.044;8.716;2023-07-30T09:15:01;22.40;96.60
22544;DHT22;11438;52.044;8.716;2023-07-30T09:17:28;22.40;96.70
22544;DHT22;11438;52.044;8.716;2023-07-30T09:19:53;22.40;96.60
22544;DHT22;11438;52.044;8.716;2023-07-30T09:22:33;22.30;96.70
22544;DHT22;11438;52.044;8.716;2023-07-30T09:25:01;22.40;96.80
22544;DHT22;11438;52.044;8.716;2023-07-30T09:27:28;22.30;96.60
22544;DHT22;11438;52.044;8.716;2023-07-30T09:29:55;22.30;96.80
22544;DHT22;11438;52.044;8.716;2023-07-30T09:32:31;22.30;96.70
22544;DHT22;11438;52.044;8.716;2023-07-30T09:35:17;22.20;96.80
22544;DHT22;11438;52.044;8.716;2023-07-30T09:37:43;22.20;96.70
22544;DHT22;11438;52.044;8.716;2023-07-30T09:40:10;22.20;96.80
22544;DHT22;11438;52.044;8.716;2023-07-30T09:42:37;22.10;96.90
22544;DHT22;11438;52.044;8.716;2023-07-30T09:45:23;22.00;96.90
22544;DHT22;11438;52.044;8.716;2023-07-30T09:47:50;22.10;97.00
22544;DHT22;11438;52.044;8.716;2023-07-30T09:50:16;22.10;97.10
22544;DHT22;11438;52.044;8.716;2023-07-30T09:52:42;22.10;97.10
22544;DHT22;11438;52.044;8.716;2023-07-30T09:55:09;22.10;97.10
22544;DHT22;11438;52.044;8.716;2023-07-30T09:57:35;22.10;97.10
22544;DHT22;11438;52.044;8.716;2023-07-30T10:00:01;22.10;97.00
22544;DHT22;11438;52.044;8.716;2023-07-30T10:02:28;22.10;97.00
22544;DHT22;11438;52.044;8.716;2023-07-30T10:04:57;22.10;97.10
22544;DHT22;11438;52.044;8.716;2023-07-30T10:07:26;22.20;96.90
22544;DHT22;11438;52.044;8.716;2023-07-30T10:09:55;22.20;97.00
22544;DHT22;11438;52.044;8.716;2023-07-30T10:12:27;22.20;96.90
22544;DHT22;11438;52.044;8.716;2023-07-30T10:14:53;22.20;96.90
22544;DHT22;11438;52.044;8.716;2023-07-30T10:17:19;22.30;96.90
22544;DHT22;11438;52.044;8.716;2023-07-30T10:19:49;22.30;97.00
22544;DHT22;11438;52.044;8.716;2023-07-30T10:25:04;22.50;97.00
22544;DHT22;11438;52.044;8.716;2023-07-30T10:27:38;22.60;97.10
22544;DHT22;11438;52.044;8.716;2023-07-30T10:30:15;22.60;97.40
22544;DHT22;11438;52.044;8.716;2023-07-30T10:35:45;22.70;97.20
22544;DHT22;11438;52.044;8.716;2023-07-30T10:38:28;22.80;97.60
22544;DHT22;11438;52.044;8.716;2023-07-30T10:41:06;22.90;97.00
22544;DHT22;11438;52.044;8.716;2023-07-30T10:43:46;22.90;97.10
22544;DHT22;11438;52.044;8.716;2023-07-30T10:46:13;22.90;97.30
22544;DHT22;11438;52.044;8.716;2023-07-30T10:48:40;23.00;97.20
22544;DHT22;11438;52.044;8.716;2023-07-30T10:51:10;23.00;96.80
22544;DHT22;11438;52.044;8.716;2023-07-30T10:53:35;23.10;96.40
22544;DHT22;11438;52.044;8.716;2023-07-30T10:56:04;23.20;96.30
22544;DHT22;11438;52.044;8.716;2023-07-30T10:58:31;23.20;96.10
22544;DHT22;11438;52.044;8.716;2023-07-30T11:00:57;23.20;96.20
22544;DHT22;11438;52.044;8.716;2023-07-30T11:03:26;23.30;96.20
22544;DHT22;11438;52.044;8.716;2023-07-30T11:05:52;23.40;96.00
22544;DHT22;11438;52.044;8.716;2023-07-30T11:08:18;23.40;96.00
22544;DHT22;11438;52.044;8.716;2023-07-30T11:10:47;23.50;96.10
22544;DHT22;11438;52.044;8.716;2023-07-30T11:13:15;23.50;96.10
22544;DHT22;11438;52.044;8.716;2023-07-30T11:15:44;23.60;95.90
22544;DHT22;11438;52.044;8.716;2023-07-30T11:18:12;23.60;96.00
22544;DHT22;11438;52.044;8.716;2023-07-30T11:20:38;23.70;95.40
22544;DHT22;11438;52.044;8.716;2023-07-30T11:23:20;23.70;95.30
22544;DHT22;11438;52.044;8.716;2023-07-30T11:25:49;23.80;95.30
22544;DHT22;11438;52.044;8.716;2023-07-30T11:28:32;23.80;95.10
22544;DHT22;11438;52.044;8.716;2023-07-30T11:30:59;23.80;95.00
22544;DHT22;11438;52.044;8.716;2023-07-30T11:33:29;23.90;94.90
22544;DHT22;11438;52.044;8.716;2023-07-30T11:35:58;23.90;94.70
22544;DHT22;11438;52.044;8.716;2023-07-30T11:38:26;23.90;94.30
22544;DHT22;11438;52.044;8.716;2023-07-30T11:40:53;24.00;94.50
22544;DHT22;11438;52.044;8.716;2023-07-30T11:43:20;24.00;94.40
22544;DHT22;11438;52.044;8.716;2023-07-30T11:45:46;24.10;93.80
22544;DHT22;11438;52.044;8.716;2023-07-30T11:48:12;24.20;94.10
22544;DHT22;11438;52.044;8.716;2023-07-30T11:50:51;24.20;94.20
22544;DHT22;11438;52.044;8.716;2023-07-30T11:53:18;24.30;94.10
22544;DHT22;11438;52.044;8.716;2023-07-30T11:55:44;24.40;94.10
22544;DHT22;11438;52.044;8.716;2023-07-30T11:58:11;24.50;93.80
22544;DHT22;11438;52.044;8.716;2023-07-30T12:00:38;24.60;93.50
22544;DHT22;11438;52.044;8.716;2023-07-30T12:03:07;24.60;93.30
22544;DHT22;11438;52.044;8.716;2023-07-30T12:05:37;24.70;92.20
22544;DHT22;11438;52.044;8.716;2023-07-30T12:08:04;24.80;91.70
22544;DHT22;11438;52.044;8.716;2023-07-30T12:10:42;24.80;91.60
22544;DHT22;11438;52.044;8.716;2023-07-30T12:13:16;24.90;90.40
22544;DHT22;11438;52.044;8.716;2023-07-30T12:15:44;25.00;90.70
22544;DHT22;11438;52.044;8.716;2023-07-30T12:18:09;25.00;90.70
22544;DHT22;11438;52.044;8.716;2023-07-30T12:20:35;25.00;90.80
22544;DHT22;11438;52.044;8.716;2023-07-30T12:23:01;25.10;90.50
22544;DHT22;11438;52.044;8.716;2023-07-30T12:25:28;25.10;89.70
22544;DHT22;11438;52.044;8.716;2023-07-30T12:27:54;25.00;89.00
22544;DHT22;11438;52.044;8.716;2023-07-30T12:30:19;25.00;89.50
22544;DHT22;11438;52.044;8.716;2023-07-30T12:32:45;25.00;90.00
22544;DHT22;11438;52.044;8.716;2023-07-30T12:35:10;25.00;90.10
22544;DHT22;11438;52.044;8.716;2023-07-30T12:37:36;25.00;90.40
22544;DHT22;11438;52.044;8.716;2023-07-30T12:40:02;24.90;89.70
22544;DHT22;11438;52.044;8.716;2023-07-30T12:42:29;24.90;88.70
22544;DHT22;11438;52.044;8.716;2023-07-30T12:44:55;24.80;90.00
22544;DHT22;11438;52.044;8.716;2023-07-30T12:47:20;24.80;90.40
22544;DHT22;11438;52.044;8.716;2023-07-30T12:49:46;24.70;90.30
22544;DHT22;11438;52.044;8.716;2023-07-30T12:52:11;24.70;90.60
22544;DHT22;11438;52.044;8.716;2023-07-30T12:54:37;24.80;90.70
22544;DHT22;11438;52.044;8.716;2023-07-30T12:57:02;24.80;90.10
22544;DHT22;11438;52.044;8.716;2023-07-30T12:59:28;24.80;89.80
22544;DHT22;11438;52.044;8.716;2023-07-30T13:01:54;24.80;90.40
22544;DHT22;11438;52.044;8.716;2023-07-30T13:04:21;24.90;90.20
22544;DHT22;11438;52.044;8.716;2023-07-30T13:06:46;24.90;90.10
22544;DHT22;11438;52.044;8.716;2023-07-30T13:09:12;25.00;89.70
22544;DHT22;11438;52.044;8.716;2023-07-30T13:11:37;25.00;89.40
22544;DHT22;11438;52.044;8.716;2023-07-30T13:14:03;25.10;88.70
22544;DHT22;11438;52.044;8.716;2023-07-30T13:16:28;25.20;89.30
22544;DHT22;11438;52.044;8.716;2023-07-30T13:18:56;25.10;89.40
22544;DHT22;11438;52.044;8.716;2023-07-30T13:21:22;25.20;89.40
22544;DHT22;11438;52.044;8.716;2023-07-30T13:23:47;25.30;88.70
22544;DHT22;11438;52.044;8.716;2023-07-30T13:26:13;25.30;88.00
22544;DHT22;11438;52.044;8.716;2023-07-30T13:28:39;25.40;86.90
22544;DHT22;11438;52.044;8.716;2023-07-30T13:31:04;25.40;86.90
22544;DHT22;11438;52.044;8.716;2023-07-30T13:33:29;25.40;86.30
22544;DHT22;11438;52.044;8.716;2023-07-30T13:35:55;25.30;86.80
22544;DHT22;11438;52.044;8.716;2023-07-30T13:38:20;25.30;85.80
22544;DHT22;11438;52.044;8.716;2023-07-30T13:40:47;25.30;85.60
22544;DHT22;11438;52.044;8.716;2023-07-30T13:43:13;25.30;85.40
22544;DHT22;11438;52.044;8.716;2023-07-30T13:45:38;25.30;84.70
22544;DHT22;11438;52.044;8.716;2023-07-30T13:48:04;25.20;84.60
22544;DHT22;11438;52.044;8.716;2023-07-30T13:50:30;25.10;85.10
22544;DHT22;11438;52.044;8.716;2023-07-30T13:52:55;25.00;87.50
22544;DHT22;11438;52.044;8.716;2023-07-30T13:55:21;24.90;88.90
22544;DHT22;11438;52.044;8.716;2023-07-30T13:57:46;24.80;90.50
22544;DHT22;11438;52.044;8.716;2023-07-30T14:00:12;24.60;91.00
22544;DHT22;11438;52.044;8.716;2023-07-30T14:02:38;24.40;91.40
22544;DHT22;11438;52.044;8.716;2023-07-30T14:05:03;24.20;91.80
22544;DHT22;11438;52.044;8.716;2023-07-30T14:07:29;24.00;92.10
22544;DHT22;11438;52.044;8.716;2023-07-30T14:09:54;23.80;92.60
22544;DHT22;11438;52.044;8.716;2023-07-30T14:12:20;23.70;92.70
22544;DHT22;11438;52.044;8.716;2023-07-30T14:14:45;23.60;93.20
22544;DHT22;11438;52.044;8.716;2023-07-30T14:17:11;23.50;93.30
22544;DHT22;11438;52.044;8.716;2023-07-30T14:19:36;23.50;93.50
22544;DHT22;11438;52.044;8.716;2023-07-30T14:22:02;23.50;93.70
22544;DHT22;11438;52.044;8.716;2023-07-30T14:24:28;23.50;93.30
22544;DHT22;11438;52.044;8.716;2023-07-30T14:26:53;23.50;93.10
22544;DHT22;11438;52.044;8.716;2023-07-30T14:29:19;23.50;92.90
22544;DHT22;11438;52.044;8.716;2023-07-30T14:31:44;23.50;92.80
22544;DHT22;11438;52.044;8.716;2023-07-30T14:34:10;23.50;93.00
22544;DHT22;11438;52.044;8.716;2023-07-30T14:36:35;23.50;93.30
22544;DHT22;11438;52.044;8.716;2023-07-30T14:39:01;23.50;93.10
22544;DHT22;11438;52.044;8.716;2023-07-30T14:41:26;23.60;93.30
22544;DHT22;11438;52.044;8.716;2023-07-30T14:43:52;23.70;93.60
22544;DHT22;11438;52.044;8.716;2023-07-30T14:46:17;23.70;93.80
22544;DHT22;11438;52.044;8.716;2023-07-30T14:48:43;23.80;93.90
22544;DHT22;11438;52.044;8.716;2023-07-30T14:51:09;23.80;94.00
22544;DHT22;11438;52.044;8.716;2023-07-30T14:53:35;23.90;93.50
22544;DHT22;11438;52.044;8.716;2023-07-30T14:56:01;24.00;93.10
22544;DHT22;11438;52.044;8.716;2023-07-30T14:58:26;24.00;93.50
22544;DHT22;11438;52.044;8.716;2023-07-30T15:00:52;24.00;93.10
22544;DHT22;11438;52.044;8.716;2023-07-30T15:03:17;24.00;93.10
22544;DHT22;11438;52.044;8.716;2023-07-30T15:05:43;24.00;93.30
22544;DHT22;11438;52.044;8.716;2023-07-30T15:08:08;24.00;93.40
22544;DHT22;11438;52.044;8.716;2023-07-30T15:10:34;24.00;93.30
22544;DHT22;11438;52.044;8.716;2023-07-30T15:13:00;24.00;92.40
22544;DHT22;11438;52.044;8.716;2023-07-30T15:15:25;24.00;92.20
22544;DHT22;11438;52.044;8.716;2023-07-30T15:17:51;23.90;92.10
22544;DHT22;11438;52.044;8.716;2023-07-30T15:20:16;24.00;92.30
22544;DHT22;11438;52.044;8.716;2023-07-30T15:22:42;24.00;92.50
22544;DHT22;11438;52.044;8.716;2023-07-30T15:25:08;24.00;92.30
22544;DHT22;11438;52.044;8.716;2023-07-30T15:27:33;24.00;92.80
22544;DHT22;11438;52.044;8.716;2023-07-30T15:29:59;24.00;92.50